sensor_id;sensor_type;location;lat;lon;timestamp;P1;durP1;ratioP1;P2;durP2;ratioP2
19887;SDS011;10106;51.332;12.336;2022-07-29T00:00:42;5.10;;;2.03;;
19887;SDS011;10106;51.332;12.336;2022-07-29T00:03:11;3.47;;;1.87;;
19887;SDS011;10106;51.332;12.336;2022-07-29T00:05:38;2.15;;;1.90;;
19887;SDS011;10106;51.332;12.336;2022-07-29T00:08:05;3.80;;;1.80;;
19887;SDS011;10106;51.332;12.336;2022-07-29T00:10:31;3.07;;;1.80;;
19887;SDS011;10106;51.332;12.336;2022-07-29T00:12:57;3.72;;;2.30;;
19887;SDS011;10106;51.332;12.336;2022-07-29T00:15:22;1.80;;;1.70;;
19887;SDS011;10106;51.332;12.336;2022-07-29T00:17:48;3.30;;;2.10;;
19887;SDS011;10106;51.332;12.336;2022-07-29T00:20:14;3.10;;;1.83;;
19887;SDS011;10106;51.332;12.336;2022-07-29T00:22:40;4.87;;;2.10;;
19887;SDS011;10106;51.332;12.336;2022-07-29T00:25:06;2.72;;;2.00;;
19887;SDS011;10106;51.332;12.336;2022-07-29T00:27:32;3.60;;;2.15;;
19887;SDS011;10106;51.332;12.336;2022-07-29T00:29:59;5.95;;;2.00;;
19887;SDS011;10106;51.332;12.336;2022-07-29T00:32:25;2.00;;;1.60;;
19887;SDS011;10106;51.332;12.336;2022-07-29T00:34:50;2.10;;;1.90;;
19887;SDS011;10106;51.332;12.336;2022-07-29T00:37:34;3.70;;;1.92;;
19887;SDS011;10106;51.332;12.336;2022-07-29T00:40:00;4.70;;;2.30;;
19887;SDS011;10106;51.332;12.336;2022-07-29T00:42:26;2.28;;;2.08;;
19887;SDS011;10106;51.332;12.336;2022-07-29T00:44:52;2.17;;;1.98;;
19887;SDS011;10106;51.332;12.336;2022-07-29T00:47:18;1.85;;;1.73;;
19887;SDS011;10106;51.332;12.336;2022-07-29T00:49:44;1.90;;;1.80;;
19887;SDS011;10106;51.332;12.336;2022-07-29T00:52:10;2.60;;;1.92;;
19887;SDS011;10106;51.332;12.336;2022-07-29T00:54:38;3.95;;;2.10;;
19887;SDS011;10106;51.332;12.336;2022-07-29T00:57:06;3.30;;;1.80;;
19887;SDS011;10106;51.332;12.336;2022-07-29T00:59:33;3.00;;;1.80;;
19887;SDS011;10106;51.332;12.336;2022-07-29T01:01:59;3.30;;;1.98;;
19887;SDS011;10106;51.332;12.336;2022-07-29T01:04:25;3.33;;;1.88;;
19887;SDS011;10106;51.332;12.336;2022-07-29T01:06:52;3.13;;;2.00;;
19887;SDS011;10106;51.332;12.336;2022-07-29T01:09:19;2.42;;;1.90;;
19887;SDS011;10106;51.332;12.336;2022-07-29T01:11:46;2.80;;;1.80;;
19887;SDS011;10106;51.332;12.336;2022-07-29T01:14:13;1.73;;;1.63;;
19887;SDS011;10106;51.332;12.336;2022-07-29T01:16:51;3.00;;;2.00;;
19887;SDS011;10106;51.332;12.336;2022-07-29T01:28:01;4.47;;;2.55;;
19887;SDS011;10106;51.332;12.336;2022-07-29T01:30:32;3.27;;;1.90;;
19887;SDS011;10106;51.332;12.336;2022-07-29T01:33:03;2.50;;;1.75;;
19887;SDS011;10106;51.332;12.336;2022-07-29T01:35:36;3.60;;;2.20;;
19887;SDS011;10106;51.332;12.336;2022-07-29T01:38:08;4.95;;;2.20;;
19887;SDS011;10106;51.332;12.336;2022-07-29T01:46:22;3.90;;;1.80;;
19887;SDS011;10106;51.332;12.336;2022-07-29T01:49:18;4.53;;;2.22;;
19887;SDS011;10106;51.332;12.336;2022-07-29T01:51:58;4.78;;;2.20;;
19887;SDS011;10106;51.332;12.336;2022-07-29T01:54:39;2.60;;;1.80;;
19887;SDS011;10106;51.332;12.336;2022-07-29T01:57:08;4.50;;;2.20;;
19887;SDS011;10106;51.332;12.336;2022-07-29T01:59:36;5.32;;;2.50;;
19887;SDS011;10106;51.332;12.336;2022-07-29T02:02:03;5.90;;;4.07;;
19887;SDS011;10106;51.332;12.336;2022-07-29T02:04:33;5.13;;;3.43;;
19887;SDS011;10106;51.332;12.336;2022-07-29T02:07:02;4.20;;;2.60;;
19887;SDS011;10106;51.332;12.336;2022-07-29T02:09:31;7.82;;;4.15;;
19887;SDS011;10106;51.332;12.336;2022-07-29T02:11:59;2.90;;;2.60;;
19887;SDS011;10106;51.332;12.336;2022-07-29T02:14:28;5.37;;;3.17;;
19887;SDS011;10106;51.332;12.336;2022-07-29T02:16:58;3.08;;;2.20;;
19887;SDS011;10106;51.332;12.336;2022-07-29T02:19:26;3.90;;;2.50;;
19887;SDS011;10106;51.332;12.336;2022-07-29T02:21:54;5.78;;;2.60;;
19887;SDS011;10106;51.332;12.336;2022-07-29T02:24:22;3.10;;;2.42;;
19887;SDS011;10106;51.332;12.336;2022-07-29T02:26:49;5.20;;;2.00;;
19887;SDS011;10106;51.332;12.336;2022-07-29T02:29:16;2.42;;;2.10;;
19887;SDS011;10106;51.332;12.336;2022-07-29T02:31:46;2.93;;;2.20;;
19887;SDS011;10106;51.332;12.336;2022-07-29T02:34:14;2.40;;;2.20;;
19887;SDS011;10106;51.332;12.336;2022-07-29T02:36:42;3.58;;;2.20;;
19887;SDS011;10106;51.332;12.336;2022-07-29T02:39:09;3.72;;;2.10;;
19887;SDS011;10106;51.332;12.336;2022-07-29T02:44:12;4.40;;;2.10;;
19887;SDS011;10106;51.332;12.336;2022-07-29T02:46:49;2.70;;;1.90;;
19887;SDS011;10106;51.332;12.336;2022-07-29T02:52:10;4.65;;;2.20;;
19887;SDS011;10106;51.332;12.336;2022-07-29T02:54:48;4.60;;;2.10;;
19887;SDS011;10106;51.332;12.336;2022-07-29T02:57:47;4.28;;;2.30;;
19887;SDS011;10106;51.332;12.336;2022-07-29T03:00:23;3.40;;;2.40;;
19887;SDS011;10106;51.332;12.336;2022-07-29T03:02:57;2.43;;;2.10;;
19887;SDS011;10106;51.332;12.336;2022-07-29T03:05:24;3.28;;;2.30;;
19887;SDS011;10106;51.332;12.336;2022-07-29T03:07:53;2.70;;;2.00;;
19887;SDS011;10106;51.332;12.336;2022-07-29T03:10:23;2.47;;;2.10;;
19887;SDS011;10106;51.332;12.336;2022-07-29T03:12:50;3.15;;;2.40;;
19887;SDS011;10106;51.332;12.336;2022-07-29T03:15:17;2.75;;;2.10;;
19887;SDS011;10106;51.332;12.336;2022-07-29T03:17:44;2.17;;;1.98;;
19887;SDS011;10106;51.332;12.336;2022-07-29T03:20:10;4.07;;;2.15;;
19887;SDS011;10106;51.332;12.336;2022-07-29T03:22:40;6.05;;;2.40;;
19887;SDS011;10106;51.332;12.336;2022-07-29T03:25:15;4.95;;;2.20;;
19887;SDS011;10106;51.332;12.336;2022-07-29T03:27:42;3.45;;;2.00;;
19887;SDS011;10106;51.332;12.336;2022-07-29T03:30:08;2.90;;;2.40;;
19887;SDS011;10106;51.332;12.336;2022-07-29T03:32:35;3.20;;;2.30;;
19887;SDS011;10106;51.332;12.336;2022-07-29T03:35:02;2.80;;;2.10;;
19887;SDS011;10106;51.332;12.336;2022-07-29T03:37:28;3.15;;;2.15;;
19887;SDS011;10106;51.332;12.336;2022-07-29T03:39:55;3.45;;;2.08;;
19887;SDS011;10106;51.332;12.336;2022-07-29T03:42:23;6.30;;;2.10;;
19887;SDS011;10106;51.332;12.336;2022-07-29T03:44:52;3.03;;;2.30;;
19887;SDS011;10106;51.332;12.336;2022-07-29T03:47:22;4.13;;;2.05;;
19887;SDS011;10106;51.332;12.336;2022-07-29T03:49:51;2.40;;;2.00;;
19887;SDS011;10106;51.332;12.336;2022-07-29T03:52:21;3.30;;;2.20;;
19887;SDS011;10106;51.332;12.336;2022-07-29T03:54:47;2.95;;;2.10;;
19887;SDS011;10106;51.332;12.336;2022-07-29T03:57:13;3.03;;;1.98;;
19887;SDS011;10106;51.332;12.336;2022-07-29T03:59:41;2.60;;;2.30;;
19887;SDS011;10106;51.332;12.336;2022-07-29T04:02:08;3.07;;;2.17;;
19887;SDS011;10106;51.332;12.336;2022-07-29T04:04:35;2.80;;;2.40;;
19887;SDS011;10106;51.332;12.336;2022-07-29T04:07:02;2.90;;;2.00;;
19887;SDS011;10106;51.332;12.336;2022-07-29T04:09:31;5.45;;;2.40;;
19887;SDS011;10106;51.332;12.336;2022-07-29T04:11:56;2.63;;;2.10;;
19887;SDS011;10106;51.332;12.336;2022-07-29T04:14:22;2.50;;;2.30;;
19887;SDS011;10106;51.332;12.336;2022-07-29T04:16:48;2.40;;;2.20;;
19887;SDS011;10106;51.332;12.336;2022-07-29T04:19:13;3.72;;;2.20;;
19887;SDS011;10106;51.332;12.336;2022-07-29T04:21:39;2.47;;;2.28;;
19887;SDS011;10106;51.332;12.336;2022-07-29T04:24:06;3.63;;;2.30;;
19887;SDS011;10106;51.332;12.336;2022-07-29T04:26:32;2.72;;;2.20;;
19887;SDS011;10106;51.332;12.336;2022-07-29T04:28:58;2.40;;;2.10;;
19887;SDS011;10106;51.332;12.336;2022-07-29T04:31:24;6.60;;;2.30;;
19887;SDS011;10106;51.332;12.336;2022-07-29T04:33:50;2.43;;;2.20;;
19887;SDS011;10106;51.332;12.336;2022-07-29T04:36:15;2.77;;;2.47;;
19887;SDS011;10106;51.332;12.336;2022-07-29T04:38:41;4.27;;;2.43;;
19887;SDS011;10106;51.332;12.336;2022-07-29T04:41:06;5.03;;;2.40;;
19887;SDS011;10106;51.332;12.336;2022-07-29T04:43:33;4.00;;;2.28;;
19887;SDS011;10106;51.332;12.336;2022-07-29T04:46:05;3.60;;;2.40;;
19887;SDS011;10106;51.332;12.336;2022-07-29T04:48:31;5.33;;;2.50;;
19887;SDS011;10106;51.332;12.336;2022-07-29T04:50:57;2.30;;;2.10;;
19887;SDS011;10106;51.332;12.336;2022-07-29T04:53:23;3.90;;;2.42;;
19887;SDS011;10106;51.332;12.336;2022-07-29T04:55:49;4.90;;;2.47;;
19887;SDS011;10106;51.332;12.336;2022-07-29T04:58:15;3.60;;;2.60;;
19887;SDS011;10106;51.332;12.336;2022-07-29T05:05:51;4.43;;;2.80;;
19887;SDS011;10106;51.332;12.336;2022-07-29T05:08:17;3.47;;;2.67;;
19887;SDS011;10106;51.332;12.336;2022-07-29T05:10:42;2.67;;;2.25;;
19887;SDS011;10106;51.332;12.336;2022-07-29T05:13:08;3.13;;;2.50;;
19887;SDS011;10106;51.332;12.336;2022-07-29T05:15:34;2.63;;;2.10;;
19887;SDS011;10106;51.332;12.336;2022-07-29T05:18:00;4.93;;;2.70;;
19887;SDS011;10106;51.332;12.336;2022-07-29T05:20:26;5.07;;;2.47;;
19887;SDS011;10106;51.332;12.336;2022-07-29T05:22:56;4.95;;;2.60;;
19887;SDS011;10106;51.332;12.336;2022-07-29T05:25:24;6.07;;;2.72;;
19887;SDS011;10106;51.332;12.336;2022-07-29T05:27:53;5.60;;;2.70;;
19887;SDS011;10106;51.332;12.336;2022-07-29T05:30:19;8.43;;;4.95;;
19887;SDS011;10106;51.332;12.336;2022-07-29T05:32:45;4.57;;;2.85;;
19887;SDS011;10106;51.332;12.336;2022-07-29T05:35:11;5.53;;;3.92;;
19887;SDS011;10106;51.332;12.336;2022-07-29T05:37:37;3.60;;;2.50;;
19887;SDS011;10106;51.332;12.336;2022-07-29T05:40:03;3.70;;;2.70;;
19887;SDS011;10106;51.332;12.336;2022-07-29T05:42:29;3.20;;;2.53;;
19887;SDS011;10106;51.332;12.336;2022-07-29T05:44:55;4.72;;;2.90;;
19887;SDS011;10106;51.332;12.336;2022-07-29T05:47:21;3.90;;;2.57;;
19887;SDS011;10106;51.332;12.336;2022-07-29T05:49:47;3.63;;;2.50;;
19887;SDS011;10106;51.332;12.336;2022-07-29T05:52:13;3.92;;;3.20;;
19887;SDS011;10106;51.332;12.336;2022-07-29T05:54:39;4.63;;;2.70;;
19887;SDS011;10106;51.332;12.336;2022-07-29T05:57:08;6.47;;;2.90;;
19887;SDS011;10106;51.332;12.336;2022-07-29T05:59:39;3.05;;;2.58;;
19887;SDS011;10106;51.332;12.336;2022-07-29T06:02:05;4.43;;;2.97;;
19887;SDS011;10106;51.332;12.336;2022-07-29T06:04:31;3.43;;;2.60;;
19887;SDS011;10106;51.332;12.336;2022-07-29T06:07:04;5.13;;;2.80;;
19887;SDS011;10106;51.332;12.336;2022-07-29T06:09:31;6.47;;;2.85;;
19887;SDS011;10106;51.332;12.336;2022-07-29T06:11:57;2.93;;;2.60;;
19887;SDS011;10106;51.332;12.336;2022-07-29T06:14:23;6.75;;;3.10;;
19887;SDS011;10106;51.332;12.336;2022-07-29T06:16:49;3.45;;;2.90;;
19887;SDS011;10106;51.332;12.336;2022-07-29T06:19:14;11.63;;;3.10;;
19887;SDS011;10106;51.332;12.336;2022-07-29T06:21:43;8.02;;;3.00;;
19887;SDS011;10106;51.332;12.336;2022-07-29T06:24:10;3.90;;;2.77;;
19887;SDS011;10106;51.332;12.336;2022-07-29T06:26:40;7.20;;;2.80;;
19887;SDS011;10106;51.332;12.336;2022-07-29T06:29:07;5.90;;;2.90;;
19887;SDS011;10106;51.332;12.336;2022-07-29T06:31:33;7.70;;;2.90;;
19887;SDS011;10106;51.332;12.336;2022-07-29T06:33:58;7.90;;;3.25;;
19887;SDS011;10106;51.332;12.336;2022-07-29T06:36:24;2.90;;;2.60;;
19887;SDS011;10106;51.332;12.336;2022-07-29T06:38:50;7.75;;;3.00;;
19887;SDS011;10106;51.332;12.336;2022-07-29T06:41:16;5.37;;;3.23;;
19887;SDS011;10106;51.332;12.336;2022-07-29T06:43:42;5.50;;;2.90;;
19887;SDS011;10106;51.332;12.336;2022-07-29T06:46:09;5.00;;;2.88;;
19887;SDS011;10106;51.332;12.336;2022-07-29T06:48:38;8.07;;;3.15;;
19887;SDS011;10106;51.332;12.336;2022-07-29T06:51:05;6.10;;;2.90;;
19887;SDS011;10106;51.332;12.336;2022-07-29T06:53:31;3.43;;;2.63;;
19887;SDS011;10106;51.332;12.336;2022-07-29T06:56:01;5.70;;;3.00;;
19887;SDS011;10106;51.332;12.336;2022-07-29T06:58:28;3.10;;;2.47;;
19887;SDS011;10106;51.332;12.336;2022-07-29T07:00:55;9.67;;;2.70;;
19887;SDS011;10106;51.332;12.336;2022-07-29T07:03:22;11.17;;;3.83;;
19887;SDS011;10106;51.332;12.336;2022-07-29T07:05:48;6.30;;;2.77;;
19887;SDS011;10106;51.332;12.336;2022-07-29T07:08:14;13.10;;;3.10;;
19887;SDS011;10106;51.332;12.336;2022-07-29T07:10:41;10.53;;;3.30;;
19887;SDS011;10106;51.332;12.336;2022-07-29T07:13:07;5.25;;;3.20;;
19887;SDS011;10106;51.332;12.336;2022-07-29T07:17:58;6.55;;;3.72;;
19887;SDS011;10106;51.332;12.336;2022-07-29T07:20:24;5.93;;;4.10;;
19887;SDS011;10106;51.332;12.336;2022-07-29T07:22:50;4.57;;;3.97;;
19887;SDS011;10106;51.332;12.336;2022-07-29T07:25:16;8.25;;;7.45;;
19887;SDS011;10106;51.332;12.336;2022-07-29T07:27:42;7.50;;;3.65;;
19887;SDS011;10106;51.332;12.336;2022-07-29T07:30:09;5.82;;;3.72;;
19887;SDS011;10106;51.332;12.336;2022-07-29T07:32:35;9.43;;;4.05;;
19887;SDS011;10106;51.332;12.336;2022-07-29T07:35:01;8.93;;;4.05;;
19887;SDS011;10106;51.332;12.336;2022-07-29T07:37:28;6.45;;;4.50;;
19887;SDS011;10106;51.332;12.336;2022-07-29T07:39:54;7.87;;;5.23;;
19887;SDS011;10106;51.332;12.336;2022-07-29T07:42:20;10.18;;;5.63;;
19887;SDS011;10106;51.332;12.336;2022-07-29T07:44:46;7.25;;;4.53;;
19887;SDS011;10106;51.332;12.336;2022-07-29T07:47:13;5.38;;;4.00;;
19887;SDS011;10106;51.332;12.336;2022-07-29T07:49:39;6.10;;;4.20;;
19887;SDS011;10106;51.332;12.336;2022-07-29T07:52:05;4.53;;;3.97;;
19887;SDS011;10106;51.332;12.336;2022-07-29T07:54:30;5.05;;;4.00;;
19887;SDS011;10106;51.332;12.336;2022-07-29T07:56:56;6.57;;;4.60;;
19887;SDS011;10106;51.332;12.336;2022-07-29T07:59:22;5.40;;;4.17;;
19887;SDS011;10106;51.332;12.336;2022-07-29T08:01:48;5.85;;;3.80;;
19887;SDS011;10106;51.332;12.336;2022-07-29T08:04:15;6.50;;;4.50;;
19887;SDS011;10106;51.332;12.336;2022-07-29T08:06:40;5.07;;;4.10;;
19887;SDS011;10106;51.332;12.336;2022-07-29T08:09:06;9.13;;;4.20;;
19887;SDS011;10106;51.332;12.336;2022-07-29T08:11:32;6.85;;;4.40;;
19887;SDS011;10106;51.332;12.336;2022-07-29T08:13:57;5.20;;;4.17;;
19887;SDS011;10106;51.332;12.336;2022-07-29T08:16:23;6.75;;;4.38;;
19887;SDS011;10106;51.332;12.336;2022-07-29T08:18:50;7.28;;;4.75;;
19887;SDS011;10106;51.332;12.336;2022-07-29T08:21:16;5.65;;;4.30;;
19887;SDS011;10106;51.332;12.336;2022-07-29T08:23:48;7.30;;;4.10;;
19887;SDS011;10106;51.332;12.336;2022-07-29T08:26:17;6.88;;;3.80;;
19887;SDS011;10106;51.332;12.336;2022-07-29T08:28:44;4.63;;;3.50;;
19887;SDS011;10106;51.332;12.336;2022-07-29T08:31:11;4.65;;;3.80;;
19887;SDS011;10106;51.332;12.336;2022-07-29T08:33:40;6.10;;;3.70;;
19887;SDS011;10106;51.332;12.336;2022-07-29T08:36:06;4.67;;;3.40;;
19887;SDS011;10106;51.332;12.336;2022-07-29T08:38:32;4.90;;;3.80;;
19887;SDS011;10106;51.332;12.336;2022-07-29T08:41:04;5.45;;;3.58;;
19887;SDS011;10106;51.332;12.336;2022-07-29T08:43:29;5.43;;;3.83;;
19887;SDS011;10106;51.332;12.336;2022-07-29T08:45:55;4.53;;;3.90;;
19887;SDS011;10106;51.332;12.336;2022-07-29T08:48:21;4.13;;;3.57;;
19887;SDS011;10106;51.332;12.336;2022-07-29T08:50:48;5.90;;;3.40;;
19887;SDS011;10106;51.332;12.336;2022-07-29T08:53:17;4.90;;;3.30;;
19887;SDS011;10106;51.332;12.336;2022-07-29T08:55:44;5.90;;;3.40;;
19887;SDS011;10106;51.332;12.336;2022-07-29T08:58:12;4.00;;;3.60;;
19887;SDS011;10106;51.332;12.336;2022-07-29T09:00:41;7.65;;;5.80;;
19887;SDS011;10106;51.332;12.336;2022-07-29T09:03:14;4.57;;;3.60;;
19887;SDS011;10106;51.332;12.336;2022-07-29T09:05:42;4.60;;;3.10;;
19887;SDS011;10106;51.332;12.336;2022-07-29T09:08:09;7.07;;;5.57;;
19887;SDS011;10106;51.332;12.336;2022-07-29T09:10:36;3.90;;;3.20;;
19887;SDS011;10106;51.332;12.336;2022-07-29T09:13:01;5.25;;;3.15;;
19887;SDS011;10106;51.332;12.336;2022-07-29T09:15:27;6.00;;;3.10;;
19887;SDS011;10106;51.332;12.336;2022-07-29T09:17:53;8.00;;;2.90;;
19887;SDS011;10106;51.332;12.336;2022-07-29T09:20:21;3.30;;;3.00;;
19887;SDS011;10106;51.332;12.336;2022-07-29T09:22:48;4.85;;;2.97;;
19887;SDS011;10106;51.332;12.336;2022-07-29T09:25:32;5.32;;;3.53;;
19887;SDS011;10106;51.332;12.336;2022-07-29T09:28:35;4.60;;;3.50;;
19887;SDS011;10106;51.332;12.336;2022-07-29T09:30:55;4.30;;;3.42;;
19887;SDS011;10106;51.332;12.336;2022-07-29T09:33:23;4.28;;;3.88;;
19887;SDS011;10106;51.332;12.336;2022-07-29T09:35:58;5.18;;;3.80;;
19887;SDS011;10106;51.332;12.336;2022-07-29T09:38:28;6.57;;;3.80;;
19887;SDS011;10106;51.332;12.336;2022-07-29T09:40:58;6.60;;;4.53;;
19887;SDS011;10106;51.332;12.336;2022-07-29T09:43:25;4.60;;;4.18;;
19887;SDS011;10106;51.332;12.336;2022-07-29T09:45:50;6.83;;;4.20;;
19887;SDS011;10106;51.332;12.336;2022-07-29T09:48:20;4.40;;;4.00;;
19887;SDS011;10106;51.332;12.336;2022-07-29T09:50:48;10.65;;;4.40;;
19887;SDS011;10106;51.332;12.336;2022-07-29T09:53:34;8.67;;;4.53;;
19887;SDS011;10106;51.332;12.336;2022-07-29T09:56:01;6.07;;;4.15;;
19887;SDS011;10106;51.332;12.336;2022-07-29T09:58:27;5.88;;;3.60;;
19887;SDS011;10106;51.332;12.336;2022-07-29T10:00:53;7.70;;;4.10;;
19887;SDS011;10106;51.332;12.336;2022-07-29T10:03:20;5.50;;;4.00;;
19887;SDS011;10106;51.332;12.336;2022-07-29T10:08:35;6.93;;;4.10;;
19887;SDS011;10106;51.332;12.336;2022-07-29T10:11:08;4.47;;;3.80;;
19887;SDS011;10106;51.332;12.336;2022-07-29T10:13:38;6.57;;;3.78;;
19887;SDS011;10106;51.332;12.336;2022-07-29T10:16:05;6.07;;;4.07;;
19887;SDS011;10106;51.332;12.336;2022-07-29T10:18:31;6.47;;;4.22;;
19887;SDS011;10106;51.332;12.336;2022-07-29T10:20:57;4.57;;;3.63;;
19887;SDS011;10106;51.332;12.336;2022-07-29T10:25:52;5.13;;;3.77;;
19887;SDS011;10106;51.332;12.336;2022-07-29T10:28:18;5.70;;;3.72;;
19887;SDS011;10106;51.332;12.336;2022-07-29T10:30:44;6.23;;;3.80;;
19887;SDS011;10106;51.332;12.336;2022-07-29T10:33:18;4.30;;;3.22;;
19887;SDS011;10106;51.332;12.336;2022-07-29T10:36:04;4.20;;;3.60;;
19887;SDS011;10106;51.332;12.336;2022-07-29T10:44:21;4.43;;;3.20;;
19887;SDS011;10106;51.332;12.336;2022-07-29T10:46:48;5.97;;;3.20;;
19887;SDS011;10106;51.332;12.336;2022-07-29T10:49:16;5.10;;;3.22;;
19887;SDS011;10106;51.332;12.336;2022-07-29T10:59:41;3.95;;;3.00;;
19887;SDS011;10106;51.332;12.336;2022-07-29T11:05:04;4.18;;;3.10;;
19887;SDS011;10106;51.332;12.336;2022-07-29T11:07:31;3.13;;;2.83;;
19887;SDS011;10106;51.332;12.336;2022-07-29T11:25:44;5.63;;;3.00;;
19887;SDS011;10106;51.332;12.336;2022-07-29T11:28:13;6.20;;;3.73;;
19887;SDS011;10106;51.332;12.336;2022-07-29T11:30:47;3.40;;;2.80;;
19887;SDS011;10106;51.332;12.336;2022-07-29T11:33:27;4.90;;;3.30;;
19887;SDS011;10106;51.332;12.336;2022-07-29T11:36:13;3.30;;;2.90;;
19887;SDS011;10106;51.332;12.336;2022-07-29T11:38:40;5.35;;;3.20;;
19887;SDS011;10106;51.332;12.336;2022-07-29T11:41:19;3.40;;;3.10;;
19887;SDS011;10106;51.332;12.336;2022-07-29T11:49:23;5.13;;;3.20;;
19887;SDS011;10106;51.332;12.336;2022-07-29T11:51:51;3.60;;;3.15;;
19887;SDS011;10106;51.332;12.336;2022-07-29T11:54:21;4.60;;;3.33;;
19887;SDS011;10106;51.332;12.336;2022-07-29T11:56:51;3.22;;;2.92;;
19887;SDS011;10106;51.332;12.336;2022-07-29T11:59:17;4.10;;;3.70;;
19887;SDS011;10106;51.332;12.336;2022-07-29T12:01:58;4.95;;;3.50;;
19887;SDS011;10106;51.332;12.336;2022-07-29T12:04:24;6.80;;;3.75;;
19887;SDS011;10106;51.332;12.336;2022-07-29T12:06:51;4.18;;;3.38;;
19887;SDS011;10106;51.332;12.336;2022-07-29T12:09:19;3.80;;;3.50;;
19887;SDS011;10106;51.332;12.336;2022-07-29T12:11:45;4.88;;;3.17;;
19887;SDS011;10106;51.332;12.336;2022-07-29T12:14:31;7.18;;;4.10;;
19887;SDS011;10106;51.332;12.336;2022-07-29T12:16:58;5.32;;;3.50;;
19887;SDS011;10106;51.332;12.336;2022-07-29T12:19:27;5.35;;;3.22;;
19887;SDS011;10106;51.332;12.336;2022-07-29T12:21:54;3.33;;;3.03;;
19887;SDS011;10106;51.332;12.336;2022-07-29T12:24:20;3.50;;;3.20;;
19887;SDS011;10106;51.332;12.336;2022-07-29T12:26:56;4.90;;;3.25;;
19887;SDS011;10106;51.332;12.336;2022-07-29T12:29:23;4.55;;;3.72;;
19887;SDS011;10106;51.332;12.336;2022-07-29T12:31:52;4.28;;;3.83;;
19887;SDS011;10106;51.332;12.336;2022-07-29T12:34:19;5.30;;;4.30;;
19887;SDS011;10106;51.332;12.336;2022-07-29T12:36:48;4.60;;;4.20;;
19887;SDS011;10106;51.332;12.336;2022-07-29T12:39:15;12.30;;;3.45;;
19887;SDS011;10106;51.332;12.336;2022-07-29T12:41:41;4.22;;;3.83;;
19887;SDS011;10106;51.332;12.336;2022-07-29T12:44:07;4.50;;;3.50;;
19887;SDS011;10106;51.332;12.336;2022-07-29T12:46:33;5.78;;;3.85;;
19887;SDS011;10106;51.332;12.336;2022-07-29T12:48:58;3.53;;;3.28;;
19887;SDS011;10106;51.332;12.336;2022-07-29T12:51:28;3.95;;;3.53;;
19887;SDS011;10106;51.332;12.336;2022-07-29T12:54:29;3.50;;;3.20;;
19887;SDS011;10106;51.332;12.336;2022-07-29T12:56:57;7.97;;;3.45;;
19887;SDS011;10106;51.332;12.336;2022-07-29T12:59:24;10.45;;;4.15;;
19887;SDS011;10106;51.332;12.336;2022-07-29T13:01:51;4.07;;;3.70;;
19887;SDS011;10106;51.332;12.336;2022-07-29T13:04:27;10.52;;;5.88;;
19887;SDS011;10106;51.332;12.336;2022-07-29T13:07:01;5.55;;;3.97;;
19887;SDS011;10106;51.332;12.336;2022-07-29T13:12:08;7.88;;;3.17;;
19887;SDS011;10106;51.332;12.336;2022-07-29T13:14:39;8.48;;;5.20;;
19887;SDS011;10106;51.332;12.336;2022-07-29T13:17:15;16.20;;;10.48;;
19887;SDS011;10106;51.332;12.336;2022-07-29T13:19:46;5.43;;;3.83;;
19887;SDS011;10106;51.332;12.336;2022-07-29T13:22:29;8.07;;;3.75;;
19887;SDS011;10106;51.332;12.336;2022-07-29T13:24:56;5.00;;;4.00;;
19887;SDS011;10106;51.332;12.336;2022-07-29T13:27:23;4.18;;;3.78;;
19887;SDS011;10106;51.332;12.336;2022-07-29T13:29:51;6.78;;;3.70;;
19887;SDS011;10106;51.332;12.336;2022-07-29T13:32:20;4.50;;;4.10;;
19887;SDS011;10106;51.332;12.336;2022-07-29T13:34:46;3.70;;;3.40;;
19887;SDS011;10106;51.332;12.336;2022-07-29T13:37:11;4.20;;;3.80;;
19887;SDS011;10106;51.332;12.336;2022-07-29T13:39:37;4.20;;;3.77;;
19887;SDS011;10106;51.332;12.336;2022-07-29T13:42:03;6.93;;;4.13;;
19887;SDS011;10106;51.332;12.336;2022-07-29T13:44:30;4.50;;;4.10;;
19887;SDS011;10106;51.332;12.336;2022-07-29T13:46:55;5.25;;;4.10;;
19887;SDS011;10106;51.332;12.336;2022-07-29T13:49:21;4.40;;;4.00;;
19887;SDS011;10106;51.332;12.336;2022-07-29T13:51:48;4.53;;;4.13;;
19887;SDS011;10106;51.332;12.336;2022-07-29T13:54:14;4.65;;;3.95;;
19887;SDS011;10106;51.332;12.336;2022-07-29T13:56:42;3.45;;;3.15;;
19887;SDS011;10106;51.332;12.336;2022-07-29T13:59:08;4.75;;;3.92;;
19887;SDS011;10106;51.332;12.336;2022-07-29T14:01:37;6.20;;;4.20;;
19887;SDS011;10106;51.332;12.336;2022-07-29T14:04:06;4.20;;;3.80;;
19887;SDS011;10106;51.332;12.336;2022-07-29T14:06:32;4.13;;;3.72;;
19887;SDS011;10106;51.332;12.336;2022-07-29T14:08:58;4.35;;;3.72;;
19887;SDS011;10106;51.332;12.336;2022-07-29T14:11:23;5.60;;;4.38;;
19887;SDS011;10106;51.332;12.336;2022-07-29T14:13:49;6.63;;;4.00;;
19887;SDS011;10106;51.332;12.336;2022-07-29T14:16:15;4.93;;;3.70;;
19887;SDS011;10106;51.332;12.336;2022-07-29T14:18:41;4.70;;;3.80;;
19887;SDS011;10106;51.332;12.336;2022-07-29T14:21:07;4.97;;;3.90;;
19887;SDS011;10106;51.332;12.336;2022-07-29T14:23:33;5.13;;;3.97;;
19887;SDS011;10106;51.332;12.336;2022-07-29T14:25:58;3.63;;;3.30;;
19887;SDS011;10106;51.332;12.336;2022-07-29T14:28:24;6.33;;;3.83;;
19887;SDS011;10106;51.332;12.336;2022-07-29T14:30:50;5.28;;;4.32;;
19887;SDS011;10106;51.332;12.336;2022-07-29T14:33:15;4.10;;;3.77;;
19887;SDS011;10106;51.332;12.336;2022-07-29T14:35:41;5.20;;;4.10;;
19887;SDS011;10106;51.332;12.336;2022-07-29T14:38:06;5.13;;;4.13;;
19887;SDS011;10106;51.332;12.336;2022-07-29T14:40:33;4.00;;;3.60;;
19887;SDS011;10106;51.332;12.336;2022-07-29T14:42:59;6.27;;;3.80;;
19887;SDS011;10106;51.332;12.336;2022-07-29T14:45:24;4.87;;;4.33;;
19887;SDS011;10106;51.332;12.336;2022-07-29T14:47:50;5.07;;;4.00;;
19887;SDS011;10106;51.332;12.336;2022-07-29T14:50:16;5.18;;;4.10;;
19887;SDS011;10106;51.332;12.336;2022-07-29T14:52:43;5.07;;;3.85;;
19887;SDS011;10106;51.332;12.336;2022-07-29T14:55:08;6.35;;;4.38;;
19887;SDS011;10106;51.332;12.336;2022-07-29T14:57:34;6.63;;;4.40;;
19887;SDS011;10106;51.332;12.336;2022-07-29T15:00:00;9.10;;;4.20;;
19887;SDS011;10106;51.332;12.336;2022-07-29T15:02:26;6.35;;;4.85;;
19887;SDS011;10106;51.332;12.336;2022-07-29T15:04:51;5.90;;;4.40;;
19887;SDS011;10106;51.332;12.336;2022-07-29T15:07:17;5.03;;;4.20;;
19887;SDS011;10106;51.332;12.336;2022-07-29T15:09:43;5.20;;;4.07;;
19887;SDS011;10106;51.332;12.336;2022-07-29T15:12:10;4.93;;;4.40;;
19887;SDS011;10106;51.332;12.336;2022-07-29T15:14:36;6.20;;;4.60;;
19887;SDS011;10106;51.332;12.336;2022-07-29T15:17:02;7.87;;;4.93;;
19887;SDS011;10106;51.332;12.336;2022-07-29T15:19:27;4.80;;;4.17;;
19887;SDS011;10106;51.332;12.336;2022-07-29T15:21:53;6.53;;;4.30;;
19887;SDS011;10106;51.332;12.336;2022-07-29T15:24:19;4.82;;;3.90;;
19887;SDS011;10106;51.332;12.336;2022-07-29T15:26:45;5.60;;;4.20;;
19887;SDS011;10106;51.332;12.336;2022-07-29T15:29:11;4.70;;;4.20;;
19887;SDS011;10106;51.332;12.336;2022-07-29T15:31:38;4.60;;;4.20;;
19887;SDS011;10106;51.332;12.336;2022-07-29T15:34:03;6.57;;;4.50;;
19887;SDS011;10106;51.332;12.336;2022-07-29T15:36:30;4.10;;;3.70;;
19887;SDS011;10106;51.332;12.336;2022-07-29T15:38:56;4.80;;;4.30;;
19887;SDS011;10106;51.332;12.336;2022-07-29T15:41:21;6.95;;;4.40;;
19887;SDS011;10106;51.332;12.336;2022-07-29T15:43:47;4.63;;;4.15;;
19887;SDS011;10106;51.332;12.336;2022-07-29T15:46:14;4.40;;;4.00;;
19887;SDS011;10106;51.332;12.336;2022-07-29T15:49:00;5.20;;;4.13;;
19887;SDS011;10106;51.332;12.336;2022-07-29T15:51:26;7.53;;;3.50;;